Time;durP1;ratioP1;P1;durP2;ratioP2;P2;SDS_P1;SDS_P2;PMS_P1;PMS_P2;Temp;Humidity;BMP_temperature;BMP_pressure;BME280_temperature;BME280_humidity;BME280_pressure;Samples;Min_cycle;Max_cycle;Signal;HPM_P1;HPM_P2
2024/03/04 00:00:43;;;;;;;9.85;6.18;;;;;;;;;;12903343;22;20028;-87
2024/03/04 00:05:47;;;;;;;8.13;5.22;;;;;;;;;;12902508;22;20024;-88
2024/03/04 00:10:51;;;;;;;11.18;5.90;;;;;;;;;;12900657;22;20728;-88
2024/03/04 00:15:55;;;;;;;6.78;4.68;;;;;;;;;;12902227;22;20028;-87
2024/03/04 00:20:58;;;;;;;7.93;5.10;;;;;;;;;;12904282;22;20390;-87
2024/03/04 00:26:06;;;;;;;6.57;4.80;;;;;;;;;;12902808;22;20127;-88
2024/03/04 00:31:10;;;;;;;7.20;4.60;;;;;;;;;;12919465;22;20024;-88
2024/03/04 00:36:13;;;;;;;7.28;4.78;;;;;;;;;;12903400;22;20077;-87
2024/03/04 00:41:24;;;;;;;5.45;4.53;;;;;;;;;;12902063;22;20074;-87
2024/03/04 00:46:27;;;;;;;6.03;4.75;;;;;;;;;;12903115;22;20031;-87
2024/03/04 00:51:30;;;;;;;7.53;5.20;;;;;;;;;;12902446;22;20059;-89
2024/03/04 00:56:35;;;;;;;7.15;4.97;;;;;;;;;;12903120;22;20078;-87
2024/03/04 01:01:39;;;;;;;6.60;4.45;;;;;;;;;;12905006;22;20035;-87
2024/03/04 01:06:42;;;;;;;8.70;4.93;;;;;;;;;;12908934;22;20046;-88
2024/03/04 01:11:47;;;;;;;7.15;4.80;;;;;;;;;;12905217;22;20027;-88
2024/03/04 01:16:52;;;;;;;7.47;5.30;;;;;;;;;;12903285;22;20031;-89
2024/03/04 01:21:55;;;;;;;7.75;5.00;;;;;;;;;;12901376;22;20027;-88
2024/03/04 01:27:00;;;;;;;17.17;11.02;;;;;;;;;;12905300;22;20103;-88
2024/03/04 01:32:04;;;;;;;24.38;15.25;;;;;;;;;;12904498;22;20481;-88
2024/03/04 01:37:08;;;;;;;37.10;22.40;;;;;;;;;;12903556;22;20279;-89
2024/03/04 01:42:13;;;;;;;66.25;39.38;;;;;;;;;;12906077;22;20402;-89
2024/03/04 01:47:20;;;;;;;55.88;33.75;;;;;;;;;;12907409;22;20021;-88
2024/03/04 01:52:24;;;;;;;39.92;25.27;;;;;;;;;;12907892;22;20055;-88
2024/03/04 01:57:29;;;;;;;49.22;29.05;;;;;;;;;;12907847;22;20700;-88
2024/03/04 02:02:32;;;;;;;39.67;24.13;;;;;;;;;;12906774;22;20058;-88
2024/03/04 02:07:38;;;;;;;51.90;32.58;;;;;;;;;;12906612;22;20078;-88
2024/03/04 02:12:43;;;;;;;44.88;29.38;;;;;;;;;;12904583;22;20055;-88
2024/03/04 02:17:47;;;;;;;38.20;24.08;;;;;;;;;;12904156;23;20356;-87
2024/03/04 02:22:54;;;;;;;40.08;23.92;;;;;;;;;;12906935;22;20554;-88
2024/03/04 02:27:57;;;;;;;52.85;32.40;;;;;;;;;;12905917;23;20040;-88
2024/03/04 02:33:03;;;;;;;51.70;30.13;;;;;;;;;;12896918;22;20266;-86
2024/03/04 02:38:10;;;;;;;59.38;32.97;;;;;;;;;;12891396;23;20024;-86
2024/03/04 02:43:13;;;;;;;48.67;29.55;;;;;;;;;;12892121;22;20452;-86
2024/03/04 02:48:17;;;;;;;52.72;31.88;;;;;;;;;;12891827;23;20024;-86
2024/03/04 02:53:21;;;;;;;55.55;33.10;;;;;;;;;;12896884;22;20020;-88
2024/03/04 02:58:28;;;;;;;47.50;26.92;;;;;;;;;;12906839;23;20486;-88
2024/03/04 03:03:31;;;;;;;;;;;;;;;;;;12906626;22;20107;-89
2024/03/04 03:08:36;;;;;;;45.33;26.33;;;;;;;;;;12905874;23;19922;-88
2024/03/04 03:13:39;;;;;;;40.38;24.58;;;;;;;;;;12904496;22;20024;-88
2024/03/04 03:18:42;;;;;;;38.80;22.73;;;;;;;;;;12904828;23;20019;-88
2024/03/04 03:23:47;;;;;;;35.50;21.48;;;;;;;;;;12903294;22;20028;-87
2024/03/04 03:28:51;;;;;;;47.20;27.35;;;;;;;;;;12903564;23;20385;-89
2024/03/04 03:33:54;;;;;;;37.03;21.77;;;;;;;;;;12905799;22;20024;-88
2024/03/04 03:38:59;;;;;;;46.10;25.92;;;;;;;;;;12904185;23;20040;-88
2024/03/04 03:44:02;;;;;;;44.42;25.70;;;;;;;;;;12898156;22;20125;-86
2024/03/04 03:49:06;;;;;;;38.15;22.67;;;;;;;;;;12890777;22;20872;-87
2024/03/04 03:54:10;;;;;;;30.30;18.20;;;;;;;;;;12890225;22;20028;-86
2024/03/04 03:59:14;;;;;;;37.92;21.73;;;;;;;;;;12889529;23;20043;-86
2024/03/04 04:04:17;;;;;;;32.85;20.23;;;;;;;;;;12888880;22;20035;-86
2024/03/04 04:09:22;;;;;;;37.88;22.80;;;;;;;;;;12890574;23;20020;-87
2024/03/04 04:14:26;;;;;;;24.58;15.63;;;;;;;;;;12891747;22;20020;-86
2024/03/04 04:19:29;;;;;;;26.30;15.80;;;;;;;;;;12889264;23;20031;-87
2024/03/04 04:24:38;;;;;;;23.77;13.40;;;;;;;;;;12887773;22;20024;-86
2024/03/04 04:29:41;;;;;;;18.48;11.70;;;;;;;;;;12890464;23;20103;-86
2024/03/04 04:34:44;;;;;;;17.98;10.27;;;;;;;;;;12901699;22;20024;-88
2024/03/04 04:39:49;;;;;;;26.95;15.73;;;;;;;;;;12905044;22;20355;-87
2024/03/04 04:44:53;;;;;;;23.42;13.43;;;;;;;;;;12904489;22;20028;-88
2024/03/04 04:49:56;;;;;;;22.95;13.82;;;;;;;;;;12905557;22;20036;-89
2024/03/04 04:55:01;;;;;;;19.50;12.80;;;;;;;;;;12902394;22;20070;-88
2024/03/04 05:00:08;;;;;;;23.20;14.15;;;;;;;;;;12902062;22;20391;-88
2024/03/04 05:05:12;;;;;;;24.17;15.55;;;;;;;;;;12907021;22;20339;-89
2024/03/04 05:10:17;;;;;;;22.63;14.02;;;;;;;;;;12906358;22;20016;-90
2024/03/04 05:15:20;;;;;;;19.27;11.70;;;;;;;;;;12907208;22;20627;-88
2024/03/04 05:20:24;;;;;;;14.20;8.38;;;;;;;;;;12965344;22;20046;-82
2024/03/04 05:25:28;;;;;;;13.05;8.48;;;;;;;;;;12973330;22;20039;-85
2024/03/04 05:30:32;;;;;;;16.85;10.95;;;;;;;;;;12976369;22;20054;-85
2024/03/04 05:35:35;;;;;;;18.48;11.45;;;;;;;;;;12979040;22;20019;-85
2024/03/04 05:40:40;;;;;;;16.38;10.40;;;;;;;;;;12982852;22;20308;-85
2024/03/04 05:45:47;;;;;;;18.33;11.70;;;;;;;;;;12985961;22;20027;-83
2024/03/04 05:50:54;;;;;;;16.35;11.15;;;;;;;;;;12992114;22;20020;-82
2024/03/04 05:55:58;;;;;;;18.48;11.68;;;;;;;;;;12992641;22;20034;-82
2024/03/04 06:01:04;;;;;;;17.33;11.07;;;;;;;;;;12981596;22;20023;-81
2024/03/04 06:06:08;;;;;;;21.92;14.32;;;;;;;;;;12981088;22;20027;-81
2024/03/04 06:11:13;;;;;;;14.32;9.50;;;;;;;;;;12993056;22;20043;-81
2024/03/04 06:16:16;;;;;;;19.67;11.05;;;;;;;;;;12977591;22;20034;-81
2024/03/04 06:21:20;;;;;;;20.95;12.07;;;;;;;;;;12972552;22;20028;-81
2024/03/04 06:26:29;;;;;;;13.23;9.10;;;;;;;;;;12972062;22;20028;-82
2024/03/04 06:31:32;;;;;;;21.02;12.15;;;;;;;;;;12972426;22;20419;-81
2024/03/04 06:36:40;;;;;;;18.20;10.70;;;;;;;;;;12973002;22;20126;-80
2024/03/04 06:55:16;;;;;;;26.33;16.23;;;;;;;;;;13093906;22;20088;-83
2024/03/04 07:00:22;;;;;;;24.40;15.68;;;;;;;;;;13089782;22;20589;-83
2024/03/04 07:05:36;;;;;;;24.23;14.07;;;;;;;;;;13063522;22;20019;-87
2024/03/04 07:10:41;;;;;;;24.08;15.25;;;;;;;;;;13046285;22;20018;-83
2024/03/04 07:15:44;;;;;;;31.98;19.73;;;;;;;;;;13087953;22;20033;-82
2024/03/04 07:20:50;;;;;;;31.15;20.15;;;;;;;;;;13086587;22;20052;-83
2024/03/04 07:25:55;;;;;;;29.40;17.30;;;;;;;;;;13089904;22;20022;-83
2024/03/04 07:31:03;;;;;;;20.73;11.75;;;;;;;;;;13089180;22;20392;-83
2024/03/04 07:36:07;;;;;;;17.40;9.77;;;;;;;;;;13093852;22;20034;-83
2024/03/04 07:41:14;;;;;;;26.90;16.85;;;;;;;;;;13092252;22;20038;-83
2024/03/04 07:46:17;;;;;;;20.73;11.73;;;;;;;;;;13076308;22;20059;-83
2024/03/04 07:51:21;;;;;;;26.25;17.02;;;;;;;;;;13095467;22;20019;-83
2024/03/04 07:56:28;;;;;;;24.80;14.52;;;;;;;;;;13140264;22;20617;-83
2024/03/04 08:01:31;;;;;;;21.40;12.93;;;;;;;;;;13093390;22;20018;-83
2024/03/04 08:06:39;;;;;;;22.75;13.73;;;;;;;;;;13106289;22;20032;-86
2024/03/04 08:11:44;;;;;;;19.73;12.35;;;;;;;;;;13078726;22;20019;-83
2024/03/04 08:16:52;;;;;;;19.58;11.85;;;;;;;;;;13086244;22;20392;-82
2024/03/04 08:21:56;;;;;;;23.33;14.43;;;;;;;;;;13087094;22;20019;-81
2024/03/04 08:27:04;;;;;;;21.00;13.10;;;;;;;;;;13113779;22;20509;-82
2024/03/04 08:32:08;;;;;;;21.83;13.40;;;;;;;;;;13084258;22;20448;-82
2024/03/04 08:37:13;;;;;;;21.25;13.32;;;;;;;;;;13084801;22;20027;-82
2024/03/04 08:42:18;;;;;;;20.65;12.50;;;;;;;;;;13113106;22;20031;-82
2024/03/04 08:47:22;;;;;;;21.83;13.25;;;;;;;;;;13087764;22;20054;-81
2024/03/04 08:52:27;;;;;;;20.00;11.93;;;;;;;;;;13089021;22;20026;-81
2024/03/04 08:58:12;;;;;;;21.70;13.02;;;;;;;;;;13124405;22;20030;-82
2024/03/04 09:03:20;;;;;;;27.90;16.75;;;;;;;;;;13096203;22;20501;-82
2024/03/04 09:08:24;;;;;;;18.27;11.82;;;;;;;;;;13087711;22;20484;-81
2024/03/04 09:13:29;;;;;;;26.55;16.63;;;;;;;;;;13090204;22;20026;-81
2024/03/04 09:18:35;;;;;;;;;;;;;;;;;;13090725;22;20398;-81
2024/03/04 09:23:40;;;;;;;30.35;18.52;;;;;;;;;;13090979;22;19918;-82
2024/03/04 09:28:53;;;;;;;23.40;13.77;;;;;;;;;;13090991;22;20049;-80
2024/03/04 09:33:57;;;;;;;25.83;17.13;;;;;;;;;;13093668;22;20027;-81
2024/03/04 09:39:05;;;;;;;26.10;15.98;;;;;;;;;;13093058;22;20030;-81
2024/03/04 09:44:11;;;;;;;18.70;11.65;;;;;;;;;;13095449;22;20508;-81
2024/03/04 09:49:17;;;;;;;23.60;13.10;;;;;;;;;;13093789;22;20015;-81
2024/03/04 09:54:22;;;;;;;13.67;9.03;;;;;;;;;;13096056;22;20114;-81
2024/03/04 09:59:28;;;;;;;24.17;15.38;;;;;;;;;;13095459;22;20011;-81
2024/03/04 10:04:32;;;;;;;;;;;;;;;;;;13087956;22;20050;-81
2024/03/04 10:09:35;;;;;;;17.23;11.13;;;;;;;;;;13111219;22;19922;-81
2024/03/04 10:14:58;;;;;;;15.27;9.85;;;;;;;;;;13077077;22;20072;-81
2024/03/04 10:20:05;;;;;;;27.33;16.75;;;;;;;;;;13102656;22;20050;-81
2024/03/04 10:25:09;;;;;;;20.02;12.18;;;;;;;;;;13072247;22;20026;-81
2024/03/04 10:30:21;;;;;;;20.02;12.10;;;;;;;;;;13094337;22;20030;-80
2024/03/04 10:35:26;;;;;;;24.67;15.68;;;;;;;;;;13068809;22;20498;-81
2024/03/04 10:40:33;;;;;;;16.27;11.07;;;;;;;;;;13065207;22;20076;-81
2024/03/04 10:45:39;;;;;;;22.17;13.80;;;;;;;;;;13094667;22;20252;-80
2024/03/04 10:50:42;;;;;;;;;;;;;;;;;;13071409;22;20077;-80
2024/03/04 10:55:46;;;;;;;18.30;12.43;;;;;;;;;;13088658;22;19918;-81
2024/03/04 11:00:54;;;;;;;15.70;9.65;;;;;;;;;;13116378;22;20067;-81
2024/03/04 11:05:58;;;;;;;21.52;11.75;;;;;;;;;;13132626;22;20031;-81
2024/03/04 11:11:07;;;;;;;17.33;9.95;;;;;;;;;;13132611;22;20401;-80
2024/03/04 11:21:38;;;;;;;13.02;8.30;;;;;;;;;;13159234;22;20018;-74
2024/03/04 11:26:43;;;;;;;23.52;15.77;;;;;;;;;;13181042;22;20030;-74
2024/03/04 11:31:53;;;;;;;20.63;12.83;;;;;;;;;;13167738;22;20022;-74
2024/03/04 11:37:01;;;;;;;22.48;12.88;;;;;;;;;;13180195;22;20357;-74
2024/03/04 11:42:04;;;;;;;38.50;22.35;;;;;;;;;;13165716;22;20466;-74
2024/03/04 11:47:11;;;;;;;20.90;12.77;;;;;;;;;;13179639;22;20072;-74
2024/03/04 11:52:20;;;;;;;25.10;14.95;;;;;;;;;;13178018;22;20437;-74
2024/03/04 11:57:25;;;;;;;22.25;13.68;;;;;;;;;;13139624;22;20098;-74
2024/03/04 12:02:30;;;;;;;21.73;12.88;;;;;;;;;;13167111;22;20069;-74
2024/03/04 12:07:36;;;;;;;27.52;16.92;;;;;;;;;;13165786;22;20081;-74
2024/03/04 12:12:43;;;;;;;32.10;19.20;;;;;;;;;;13137678;22;20041;-74
2024/03/04 12:17:47;;;;;;;24.38;14.38;;;;;;;;;;13166670;22;20076;-74
2024/03/04 12:22:52;;;;;;;27.95;16.95;;;;;;;;;;13165852;22;20452;-74
2024/03/04 12:27:57;;;;;;;26.02;14.82;;;;;;;;;;13166145;22;20030;-74
2024/03/04 12:33:02;;;;;;;21.23;12.65;;;;;;;;;;13165053;22;20024;-74
2024/03/04 12:38:08;;;;;;;28.98;17.98;;;;;;;;;;13173339;22;20045;-74
2024/03/04 12:43:12;;;;;;;;;;;;;;;;;;13173586;22;20030;-74
2024/03/04 12:48:18;;;;;;;23.08;14.38;;;;;;;;;;13138380;22;19922;-74
2024/03/04 12:53:25;;;;;;;30.55;17.95;;;;;;;;;;13170647;22;20022;-74
2024/03/04 12:58:28;;;;;;;33.78;20.65;;;;;;;;;;13171885;22;20096;-74
2024/03/04 13:03:32;;;;;;;25.08;15.43;;;;;;;;;;13138181;22;20118;-74
2024/03/04 13:08:37;;;;;;;24.13;13.57;;;;;;;;;;13171284;22;20026;-74
2024/03/04 13:13:40;;;;;;;22.73;15.02;;;;;;;;;;13136508;22;20022;-74
2024/03/04 13:18:44;;;;;;;25.70;15.88;;;;;;;;;;13169038;22;20022;-74
2024/03/04 13:23:49;;;;;;;23.85;15.43;;;;;;;;;;13168275;22;20030;-74
2024/03/04 13:28:53;;;;;;;20.45;13.25;;;;;;;;;;13169688;22;20361;-74
2024/03/04 13:33:57;;;;;;;15.68;10.32;;;;;;;;;;13163921;22;20027;-74
2024/03/04 13:39:02;;;;;;;17.17;10.95;;;;;;;;;;13141098;22;20029;-74
2024/03/04 13:44:05;;;;;;;16.73;9.38;;;;;;;;;;13173306;22;20033;-74
2024/03/04 13:49:11;;;;;;;16.73;10.57;;;;;;;;;;13173147;22;20025;-74
2024/03/04 13:54:15;;;;;;;15.27;10.13;;;;;;;;;;13171129;22;20102;-74
2024/03/04 13:59:18;;;;;;;17.98;11.13;;;;;;;;;;13171028;22;20037;-74
2024/03/04 14:04:23;;;;;;;18.40;10.93;;;;;;;;;;13172488;22;20042;-74
2024/03/04 14:09:29;;;;;;;16.45;10.13;;;;;;;;;;13142236;22;20042;-74
2024/03/04 14:14:32;;;;;;;18.45;10.90;;;;;;;;;;13168737;22;20018;-74
2024/03/04 14:19:36;;;;;;;13.85;8.65;;;;;;;;;;13167847;22;20026;-74
2024/03/04 14:24:41;;;;;;;12.07;6.93;;;;;;;;;;13140067;22;20075;-74
2024/03/04 14:29:44;;;;;;;12.48;8.45;;;;;;;;;;13138686;22;20465;-74
2024/03/04 14:34:47;;;;;;;12.30;8.05;;;;;;;;;;13139013;22;20549;-74
2024/03/04 14:39:55;;;;;;;15.35;9.10;;;;;;;;;;13188185;22;20056;-74
2024/03/04 14:44:58;;;;;;;17.70;10.20;;;;;;;;;;13189299;22;20093;-74
2024/03/04 14:50:02;;;;;;;11.50;7.30;;;;;;;;;;13188460;22;20018;-74
2024/03/04 14:55:08;;;;;;;10.55;7.18;;;;;;;;;;13188611;22;20104;-75
2024/03/04 15:00:12;;;;;;;18.33;10.75;;;;;;;;;;13140144;22;20090;-74
2024/03/04 15:05:18;;;;;;;15.52;9.93;;;;;;;;;;13166269;22;20034;-74
2024/03/04 15:10:25;;;;;;;18.80;11.13;;;;;;;;;;13139848;22;20105;-74
2024/03/04 15:15:30;;;;;;;12.00;8.00;;;;;;;;;;13139792;22;20046;-74
2024/03/04 15:20:34;;;;;;;9.15;6.30;;;;;;;;;;13184270;22;20412;-75
2024/03/04 15:25:39;;;;;;;14.98;9.55;;;;;;;;;;13139238;22;20129;-74
2024/03/04 15:30:43;;;;;;;14.45;9.70;;;;;;;;;;13182158;22;20342;-74
2024/03/04 15:35:46;;;;;;;19.52;12.65;;;;;;;;;;13137659;22;20109;-74
2024/03/04 15:40:51;;;;;;;14.10;9.18;;;;;;;;;;13165117;22;20018;-74
2024/03/04 15:45:54;;;;;;;15.02;10.45;;;;;;;;;;13183322;22;20022;-74
2024/03/04 15:50:58;;;;;;;15.35;9.93;;;;;;;;;;13164959;22;20393;-74
2024/03/04 15:56:04;;;;;;;22.38;14.43;;;;;;;;;;13181599;22;20117;-74
2024/03/04 16:01:07;;;;;;;20.83;11.40;;;;;;;;;;13165272;22;20026;-74
2024/03/04 16:06:11;;;;;;;13.35;8.65;;;;;;;;;;13179393;22;20510;-74
2024/03/04 16:11:15;;;;;;;14.30;9.27;;;;;;;;;;13180906;22;20093;-75
2024/03/04 16:16:19;;;;;;;13.55;8.88;;;;;;;;;;13136515;22;20022;-74
2024/03/04 16:21:23;;;;;;;12.25;8.65;;;;;;;;;;13178271;22;20021;-74
2024/03/04 16:26:28;;;;;;;11.77;7.97;;;;;;;;;;13178412;22;20018;-74
2024/03/04 16:31:32;;;;;;;10.10;6.65;;;;;;;;;;13178243;22;20473;-74
2024/03/04 16:36:35;;;;;;;10.38;6.38;;;;;;;;;;13178592;22;20460;-75
2024/03/04 16:41:40;;;;;;;24.20;12.23;;;;;;;;;;13177369;22;20544;-74
2024/03/04 16:46:45;;;;;;;17.92;11.30;;;;;;;;;;13177631;22;20018;-74
2024/03/04 16:51:49;;;;;;;10.75;7.38;;;;;;;;;;13175427;22;20057;-74
2024/03/04 16:56:54;;;;;;;10.25;6.50;;;;;;;;;;13171059;22;20097;-74
2024/03/04 17:01:57;;;;;;;17.23;11.47;;;;;;;;;;13179399;22;20110;-74
2024/03/04 17:07:01;;;;;;;13.18;8.85;;;;;;;;;;13165106;22;20022;-74
2024/03/04 17:12:06;;;;;;;12.75;8.15;;;;;;;;;;13179072;22;20045;-74
2024/03/04 17:17:09;;;;;;;12.40;7.60;;;;;;;;;;13179772;22;20046;-74
2024/03/04 17:22:13;;;;;;;11.98;7.95;;;;;;;;;;13176305;22;20019;-74
2024/03/04 17:27:17;;;;;;;13.60;9.38;;;;;;;;;;13178972;22;20050;-74
2024/03/04 17:32:21;;;;;;;13.95;8.65;;;;;;;;;;13179410;22;20093;-75
2024/03/04 17:37:24;;;;;;;31.75;21.10;;;;;;;;;;13170500;22;20383;-74
2024/03/04 17:42:29;;;;;;;44.88;29.58;;;;;;;;;;13179324;22;20110;-74
2024/03/04 17:47:32;;;;;;;44.13;27.40;;;;;;;;;;13179187;22;20026;-74
2024/03/04 17:52:36;;;;;;;34.88;22.58;;;;;;;;;;13178280;22;20025;-74
2024/03/04 17:57:40;;;;;;;18.98;13.07;;;;;;;;;;13139398;22;20036;-74
2024/03/04 18:02:44;;;;;;;18.65;13.63;;;;;;;;;;13176414;22;20025;-74
2024/03/04 18:07:48;;;;;;;16.67;11.00;;;;;;;;;;13176599;22;20025;-74
2024/03/04 18:12:52;;;;;;;16.10;10.40;;;;;;;;;;13176727;22;20034;-74
2024/03/04 18:17:56;;;;;;;12.98;8.90;;;;;;;;;;13175788;22;20027;-74
2024/03/04 18:23:00;;;;;;;12.98;8.25;;;;;;;;;;13166221;22;20068;-74
2024/03/04 18:28:05;;;;;;;11.93;7.70;;;;;;;;;;13139791;22;20022;-74
2024/03/04 18:33:08;;;;;;;11.80;7.93;;;;;;;;;;13174696;22;20457;-74
2024/03/04 18:38:11;;;;;;;13.15;9.05;;;;;;;;;;13139431;22;20018;-74
2024/03/04 18:43:17;;;;;;;11.50;7.75;;;;;;;;;;13172575;22;20027;-74
2024/03/04 18:48:21;;;;;;;;;;;;;;;;;;13174187;22;20048;-74
2024/03/04 18:53:24;;;;;;;11.55;7.63;;;;;;;;;;13173397;22;20011;-74
2024/03/04 18:58:28;;;;;;;12.52;7.53;;;;;;;;;;13171255;22;20334;-74
2024/03/04 19:03:32;;;;;;;12.05;7.93;;;;;;;;;;13172380;22;20452;-74
2024/03/04 19:08:35;;;;;;;13.00;8.77;;;;;;;;;;13172418;22;20023;-74
2024/03/04 19:13:40;;;;;;;13.55;8.30;;;;;;;;;;13172966;22;20106;-74
2024/03/04 19:18:43;;;;;;;14.05;8.30;;;;;;;;;;13139253;22;20049;-74
2024/03/04 19:23:46;;;;;;;13.05;8.35;;;;;;;;;;13166895;22;20022;-74
2024/03/04 19:28:51;;;;;;;12.32;8.52;;;;;;;;;;13170593;22;20049;-74
2024/03/04 19:33:55;;;;;;;13.18;8.82;;;;;;;;;;13166963;22;20027;-75
2024/03/04 19:38:59;;;;;;;14.70;9.63;;;;;;;;;;13165962;22;20345;-75
2024/03/04 19:44:04;;;;;;;17.50;9.70;;;;;;;;;;13167690;22;20097;-74
2024/03/04 19:49:07;;;;;;;12.98;9.38;;;;;;;;;;13165167;22;20049;-74
2024/03/04 19:54:11;;;;;;;15.23;9.75;;;;;;;;;;13136943;22;20101;-74
2024/03/04 19:59:15;;;;;;;16.90;9.00;;;;;;;;;;13166975;22;20521;-75
2024/03/04 20:04:18;;;;;;;16.20;9.77;;;;;;;;;;13164218;22;20400;-74
2024/03/04 20:09:22;;;;;;;14.20;9.60;;;;;;;;;;13166180;22;20018;-75
2024/03/04 20:14:26;;;;;;;13.43;8.90;;;;;;;;;;13137364;22;20622;-75
2024/03/04 20:19:30;;;;;;;14.10;9.02;;;;;;;;;;13165952;22;20026;-75
2024/03/04 20:24:33;;;;;;;13.07;8.27;;;;;;;;;;13167134;22;20075;-75
2024/03/04 20:29:39;;;;;;;14.48;9.02;;;;;;;;;;13166657;22;20591;-75
2024/03/04 20:34:42;;;;;;;17.50;10.23;;;;;;;;;;13165944;22;20037;-75
2024/03/04 20:39:45;;;;;;;14.05;8.73;;;;;;;;;;13169045;22;20122;-78
2024/03/04 20:44:50;;;;;;;15.77;9.48;;;;;;;;;;13176423;22;20042;-75
2024/03/04 20:49:54;;;;;;;14.85;9.38;;;;;;;;;;13191113;22;20022;-75
2024/03/04 20:54:57;;;;;;;13.75;8.93;;;;;;;;;;13188384;22;20021;-75
2024/03/04 21:00:07;;;;;;;15.07;9.32;;;;;;;;;;13166470;22;20423;-74
2024/03/04 21:05:12;;;;;;;16.67;10.10;;;;;;;;;;13184751;22;20025;-77
2024/03/04 21:10:18;;;;;;;;;;;;;;;;;;13166043;22;20022;-74
2024/03/04 21:15:23;;;;;;;18.42;9.05;;;;;;;;;;13184909;22;19918;-74
2024/03/04 21:20:26;;;;;;;17.42;10.80;;;;;;;;;;13184116;22;20106;-75
2024/03/04 21:25:29;;;;;;;16.35;10.65;;;;;;;;;;13165893;22;20053;-75
2024/03/04 21:30:34;;;;;;;21.35;12.07;;;;;;;;;;13136458;22;20404;-75
2024/03/04 21:35:37;;;;;;;19.63;12.38;;;;;;;;;;13137968;22;20014;-74
2024/03/04 21:40:41;;;;;;;19.30;11.82;;;;;;;;;;13182823;22;20060;-74
2024/03/04 21:45:45;;;;;;;20.75;12.55;;;;;;;;;;13165448;22;20022;-74
2024/03/04 21:50:49;;;;;;;20.00;12.13;;;;;;;;;;13137253;22;20026;-74
2024/03/04 21:55:52;;;;;;;20.75;12.10;;;;;;;;;;13181758;22;20504;-74
2024/03/04 22:00:57;;;;;;;24.17;13.73;;;;;;;;;;13169929;22;20052;-74
2024/03/04 22:06:00;;;;;;;22.90;12.52;;;;;;;;;;13141873;22;20046;-74
2024/03/04 22:11:04;;;;;;;20.38;11.98;;;;;;;;;;13167906;22;20419;-74
2024/03/04 22:16:10;;;;;;;21.70;12.00;;;;;;;;;;13185721;22;20026;-74
2024/03/04 22:21:14;;;;;;;19.63;11.77;;;;;;;;;;13141084;22;20064;-75
2024/03/04 22:26:17;;;;;;;22.25;12.48;;;;;;;;;;13184630;22;20113;-75
2024/03/04 22:31:22;;;;;;;22.60;12.93;;;;;;;;;;13182508;22;20566;-74
2024/03/04 22:36:26;;;;;;;22.10;12.87;;;;;;;;;;13180760;22;20088;-74
2024/03/04 22:41:29;;;;;;;22.00;13.07;;;;;;;;;;13166069;22;20558;-74
2024/03/04 22:46:34;;;;;;;23.00;13.70;;;;;;;;;;13180621;22;20097;-74
2024/03/04 22:51:38;;;;;;;20.65;12.27;;;;;;;;;;13180221;22;20418;-74
2024/03/04 22:56:41;;;;;;;21.92;13.32;;;;;;;;;;13180248;22;20050;-74
2024/03/04 23:01:46;;;;;;;23.60;13.20;;;;;;;;;;13179136;22;20394;-74
2024/03/04 23:06:49;;;;;;;21.35;12.77;;;;;;;;;;13179563;22;20026;-74
2024/03/04 23:11:52;;;;;;;20.05;12.18;;;;;;;;;;13138734;22;20101;-74
2024/03/04 23:16:57;;;;;;;23.92;12.75;;;;;;;;;;13166710;22;20054;-74
2024/03/04 23:22:00;;;;;;;18.45;10.88;;;;;;;;;;13166096;22;20345;-74
2024/03/04 23:27:04;;;;;;;23.70;11.68;;;;;;;;;;13177708;22;20109;-74
2024/03/04 23:32:09;;;;;;;20.50;11.65;;;;;;;;;;13137628;22;20049;-73
2024/03/04 23:37:12;;;;;;;21.25;12.27;;;;;;;;;;13178210;22;20057;-75
2024/03/04 23:42:15;;;;;;;19.05;11.45;;;;;;;;;;13165235;22;20018;-74
2024/03/04 23:47:20;;;;;;;23.77;13.82;;;;;;;;;;13165911;22;20018;-74
2024/03/04 23:52:25;;;;;;;23.65;12.57;;;;;;;;;;13175354;22;20028;-74
2024/03/04 23:57:28;;;;;;;20.05;12.05;;;;;;;;;;13137615;22;20072;-74
